Time;durP1;ratioP1;P1;durP2;ratioP2;P2;SDS_P1;SDS_P2;PMS_P1;PMS_P2;Temp;Humidity;BMP_temperature;BMP_pressure;BME280_temperature;BME280_humidity;BME280_pressure;Samples;Min_cycle;Max_cycle;Signal;HPM_P1;HPM_P2
2023/07/08 00:00:24;;;;;;;8.27;5.28;;;;;;;23.69;nan;62041.28;5033512;28;20176;-63
2023/07/08 00:02:50;;;;;;;7.82;5.07;;;;;;;22.95;nan;61931.03;5035192;28;20308;-59
2023/07/08 00:05:18;;;;;;;8.07;5.07;;;;;;;23.50;nan;62170.94;5035027;28;20180;-60
2023/07/08 00:07:45;;;;;;;8.38;5.30;;;;;;;23.21;nan;62007.50;5034122;28;20175;-61
2023/07/08 00:10:20;;;;;;;8.88;5.65;;;;;;;23.72;nan;62117.75;5034765;28;20206;-63
2023/07/08 00:12:50;;;;;;;8.93;5.47;;;;;;;23.79;nan;62091.22;5034755;28;20198;-64
2023/07/08 00:15:16;;;;;;;7.72;5.18;;;;;;;23.80;nan;62120.50;5034728;28;20178;-61
2023/07/08 00:17:42;;;;;;;8.93;5.50;;;;;;;23.47;nan;62055.38;5034795;28;20168;-63
2023/07/08 00:20:23;;;;;;;9.30;5.63;;;;;;;23.46;nan;61955.13;5034618;28;20292;-60
2023/07/08 00:22:51;;;;;;;9.98;5.32;;;;;;;23.79;nan;62099.06;5034312;28;20171;-61
2023/07/08 00:25:19;;;;;;;8.25;5.25;;;;;;;23.53;nan;62192.06;5034760;28;20167;-60
2023/07/08 00:27:46;;;;;;;10.35;6.20;;;;;;;23.78;nan;62075.00;5034297;28;20646;-63
2023/07/08 00:30:21;;;;;;;9.43;5.53;;;;;;;23.63;nan;62162.28;5034285;28;20195;-60
2023/07/08 00:32:53;;;;;;;9.85;5.68;;;;;;;23.63;nan;62094.44;5034365;28;20258;-59
2023/07/08 00:35:20;;;;;;;9.10;5.32;;;;;;;23.56;nan;62177.22;5034155;28;20209;-62
2023/07/08 00:37:46;;;;;;;10.52;5.38;;;;;;;23.81;nan;62109.16;5034066;28;20274;-63
2023/07/08 00:40:15;;;;;;;9.90;5.38;;;;;;;23.81;nan;62096.13;5032379;28;20258;-63
2023/07/08 00:42:44;;;;;;;10.73;5.68;;;;;;;23.48;nan;62032.47;5032496;28;20266;-59
2023/07/08 00:45:37;;;;;;;11.40;6.05;;;;;;;23.78;nan;62157.94;5032214;28;20171;-61
2023/07/08 00:48:15;;;;;;;9.88;5.70;;;;;;;23.63;nan;62078.78;5027043;28;20623;-63
2023/07/08 00:50:40;;;;;;;10.25;5.80;;;;;;;23.28;nan;61978.97;5032860;28;20182;-60
2023/07/08 00:53:30;;;;;;;9.00;5.55;;;;;;;23.26;nan;61974.06;5032648;28;20168;-58
2023/07/08 00:56:09;;;;;;;8.93;5.20;;;;;;;23.29;nan;62136.56;5034352;28;20187;-61
2023/07/08 00:58:41;;;;;;;8.88;5.63;;;;;;;23.37;nan;62075.25;5033996;28;20175;-63
2023/07/08 01:01:07;;;;;;;8.63;5.47;;;;;;;23.54;nan;62078.97;5034332;28;20270;-60
2023/07/08 01:03:40;;;;;;;7.80;5.03;;;;;;;23.62;nan;62101.16;5034156;28;20246;-63
2023/07/08 01:06:06;;;;;;;8.15;4.97;;;;;;;23.45;nan;62027.00;5034655;28;20168;-62
2023/07/08 01:08:32;;;;;;;8.55;5.65;;;;;;;23.22;nan;62147.41;5034463;28;20210;-60
2023/07/08 01:11:03;;;;;;;7.78;4.78;;;;;;;23.44;nan;62036.31;5033370;28;20183;-63
2023/07/08 01:13:34;;;;;;;11.45;5.20;;;;;;;22.50;nan;62114.84;5033991;28;20670;-60
2023/07/08 01:16:00;;;;;;;9.23;5.00;;;;;;;23.40;nan;62031.16;5034158;28;20611;-63
2023/07/08 01:18:25;;;;;;;8.18;5.18;;;;;;;23.25;nan;62124.75;5033985;28;20266;-60
2023/07/08 01:20:55;;;;;;;7.18;4.72;;;;;;;23.11;nan;62314.19;5033645;28;20208;-61
2023/07/08 01:23:21;;;;;;;6.80;5.03;;;;;;;23.30;nan;61997.47;5033579;28;20183;-63
2023/07/08 01:25:47;;;;;;;7.60;5.32;;;;;;;23.36;nan;62066.28;5033804;28;20171;-61
2023/07/08 01:28:13;;;;;;;8.02;5.28;;;;;;;22.93;nan;61971.03;5033727;28;20180;-60
2023/07/08 01:30:41;;;;;;;8.90;5.45;;;;;;;23.19;nan;61984.38;5033402;28;20167;-61
2023/07/08 01:33:21;;;;;;;7.82;4.97;;;;;;;23.14;nan;62031.41;5033680;28;20214;-63
2023/07/08 01:35:49;;;;;;;9.20;5.25;;;;;;;22.87;nan;61977.78;5033421;28;20168;-60
2023/07/08 01:38:21;;;;;;;10.82;6.03;;;;;;;22.89;nan;61959.22;5033703;28;20214;-61
2023/07/08 01:40:53;;;;;;;11.93;5.85;;;;;;;23.12;nan;62023.91;5033569;28;20254;-61
2023/07/08 01:43:18;;;;;;;10.20;5.50;;;;;;;22.92;nan;62081.38;5032991;28;20206;-61
2023/07/08 01:45:44;;;;;;;12.57;6.15;;;;;;;23.23;nan;62005.13;5033649;28;20670;-61
2023/07/08 01:48:14;;;;;;;9.90;5.85;;;;;;;23.19;nan;62028.69;5033109;28;20175;-60
2023/07/08 01:50:59;;;;;;;9.70;5.50;;;;;;;23.03;nan;62008.44;5033218;28;20182;-59
2023/07/08 01:53:40;;;;;;;8.68;5.72;;;;;;;23.01;nan;62227.75;5032988;28;20175;-62
2023/07/08 01:56:06;;;;;;;7.80;5.68;;;;;;;22.67;nan;61960.22;5033695;28;20247;-63
2023/07/08 01:58:32;;;;;;;9.88;5.82;;;;;;;23.05;nan;62026.38;5032931;28;20274;-61
2023/07/08 02:00:58;;;;;;;8.63;5.68;;;;;;;23.07;nan;62015.06;5032628;28;20255;-59
2023/07/08 02:03:23;;;;;;;9.63;5.63;;;;;;;22.80;nan;61956.78;5032928;28;20762;-62
2023/07/08 02:05:49;;;;;;;9.35;5.95;;;;;;;23.01;nan;62024.44;5033096;28;20229;-60
2023/07/08 02:08:14;;;;;;;10.60;5.43;;;;;;;22.94;nan;62292.72;5031641;28;20179;-60
2023/07/08 02:10:42;;;;;;;13.50;5.53;;;;;;;22.78;nan;61985.81;5033026;28;20172;-61
2023/07/08 02:13:07;;;;;;;7.32;5.32;;;;;;;22.99;nan;61967.41;5032726;28;20270;-60
2023/07/08 02:15:33;;;;;;;9.40;5.90;;;;;;;22.97;nan;61996.44;5032237;28;20203;-62
2023/07/08 02:17:58;;;;;;;12.05;6.53;;;;;;;23.03;nan;62020.94;5032480;28;20179;-60
2023/07/08 02:20:24;;;;;;;11.20;6.40;;;;;;;22.60;nan;61936.66;5032314;28;20250;-59
2023/07/08 02:22:49;;;;;;;9.60;5.95;;;;;;;22.57;nan;62042.06;5031976;28;20179;-61
2023/07/08 02:25:15;;;;;;;9.93;6.20;;;;;;;22.95;nan;61980.53;5033094;28;20179;-60
2023/07/08 02:27:41;;;;;;;9.77;6.15;;;;;;;22.52;nan;62062.44;5032389;28;20175;-63
2023/07/08 02:30:08;;;;;;;10.30;6.45;;;;;;;22.59;nan;61927.69;5032187;28;20667;-63
2023/07/08 02:32:35;;;;;;;8.88;6.03;;;;;;;22.79;nan;61963.50;5031952;28;20175;-63
2023/07/08 02:35:04;;;;;;;14.75;6.68;;;;;;;22.71;nan;61941.34;5032243;28;20171;-63
2023/07/08 02:37:30;;;;;;;11.80;6.15;;;;;;;22.67;nan;61968.06;5032184;28;20179;-64
2023/07/08 02:39:55;;;;;;;10.20;6.68;;;;;;;22.78;nan;62277.06;5032190;28;20179;-62
2023/07/08 02:42:21;;;;;;;11.13;6.75;;;;;;;21.83;nan;61800.84;5032124;28;20694;-62
2023/07/08 02:44:46;;;;;;;11.02;6.78;;;;;;;22.33;nan;61911.75;5031593;28;20566;-60
2023/07/08 02:47:12;;;;;;;11.50;7.05;;;;;;;22.57;nan;62255.63;5031949;28;20171;-63
2023/07/08 02:49:37;;;;;;;12.55;7.22;;;;;;;22.61;nan;61974.25;5032011;28;20670;-61
2023/07/08 02:52:03;;;;;;;15.60;8.20;;;;;;;22.61;nan;61950.81;5031962;28;20203;-62
2023/07/08 02:54:28;;;;;;;11.48;7.45;;;;;;;22.49;nan;62046.53;5032006;28;20171;-62
2023/07/08 02:56:53;;;;;;;14.80;8.23;;;;;;;22.81;nan;62059.00;5031812;28;20179;-59
2023/07/08 02:59:19;;;;;;;14.57;7.95;;;;;;;22.57;nan;62034.81;5031491;28;20643;-61
2023/07/08 03:01:46;;;;;;;13.20;7.85;;;;;;;22.48;nan;62035.00;5032270;28;20178;-61
2023/07/08 03:04:12;;;;;;;12.63;7.50;;;;;;;22.56;nan;62036.28;5032239;28;20222;-62
2023/07/08 03:06:42;;;;;;;10.77;7.15;;;;;;;22.85;nan;62029.66;5031794;28;20233;-61
2023/07/08 03:09:08;;;;;;;14.40;8.07;;;;;;;22.75;nan;62000.06;5032246;28;20277;-61
2023/07/08 03:11:35;;;;;;;14.32;8.27;;;;;;;22.79;nan;62054.13;5031159;28;20187;-61
2023/07/08 03:14:02;;;;;;;13.85;7.70;;;;;;;22.69;nan;61961.94;5031512;28;20202;-61
2023/07/08 03:16:28;;;;;;;11.60;7.75;;;;;;;22.40;nan;62029.06;5031457;28;20171;-60
2023/07/08 03:18:53;;;;;;;13.60;8.15;;;;;;;22.32;nan;61923.63;5032198;28;20654;-61
2023/07/08 03:21:18;;;;;;;11.52;7.60;;;;;;;;;;5032300;28;20584;-63
2023/07/08 03:23:45;;;;;;;12.05;7.28;;;;;;;22.39;nan;62020.09;5032269;28;20187;-62
2023/07/08 03:26:15;;;;;;;19.88;8.02;;;;;;;22.62;nan;61935.75;5031792;28;20198;-63
2023/07/08 03:28:41;;;;;;;15.82;8.70;;;;;;;22.73;nan;62055.66;5031669;28;20203;-63
2023/07/08 03:31:09;;;;;;;13.88;8.43;;;;;;;22.56;nan;61937.31;5031826;28;20257;-59
2023/07/08 03:33:34;;;;;;;16.20;8.48;;;;;;;22.42;nan;62129.72;5032329;28;20237;-63
2023/07/08 03:36:01;;;;;;;13.73;8.30;;;;;;;22.30;nan;61882.28;5035553;28;20168;-63
2023/07/08 03:38:26;;;;;;;15.95;8.30;;;;;;;22.65;nan;61942.34;5035649;28;20262;-61
2023/07/08 03:40:52;;;;;;;15.32;8.95;;;;;;;22.50;nan;61976.81;5033987;28;20270;-63
2023/07/08 03:43:17;;;;;;;14.40;8.98;;;;;;;22.61;nan;62080.50;5035123;28;20701;-62
2023/07/08 03:45:43;;;;;;;13.30;8.25;;;;;;;22.46;nan;61918.72;5035178;28;20863;-63
2023/07/08 03:48:11;;;;;;;14.68;8.02;;;;;;;22.17;nan;61890.38;5034982;28;20186;-61
2023/07/08 03:50:37;;;;;;;15.60;9.00;;;;;;;22.59;nan;61971.97;5034835;28;20202;-63
2023/07/08 03:53:02;;;;;;;16.33;10.02;;;;;;;22.27;nan;61897.13;5034765;28;20604;-59
2023/07/08 03:55:28;;;;;;;16.27;8.60;;;;;;;21.86;nan;61871.91;5034757;28;20180;-60
2023/07/08 03:57:54;;;;;;;15.35;8.27;;;;;;;22.26;nan;61843.91;5034785;28;20180;-62
2023/07/08 04:00:19;;;;;;;16.17;9.18;;;;;;;22.52;nan;61969.22;5034682;28;20207;-62
2023/07/08 04:02:48;;;;;;;12.05;8.02;;;;;;;22.64;nan;61977.09;5034458;28;20227;-60
2023/07/08 04:05:24;;;;;;;12.10;8.05;;;;;;;22.63;nan;61957.72;5034895;28;20187;-60
2023/07/08 04:07:50;;;;;;;14.13;8.52;;;;;;;22.46;nan;62061.38;5039064;28;20523;-62
2023/07/08 04:10:16;;;;;;;13.68;8.52;;;;;;;22.64;nan;61885.94;5023804;28;20187;-61
2023/07/08 04:12:42;;;;;;;14.68;8.63;;;;;;;23.00;nan;62007.06;5024197;28;20184;-61
2023/07/08 04:15:09;;;;;;;14.65;8.48;;;;;;;22.86;nan;61963.06;5021604;28;20230;-59
2023/07/08 04:17:40;;;;;;;13.90;8.70;;;;;;;22.90;nan;61973.38;5032218;28;20179;-62
2023/07/08 04:20:08;;;;;;;13.30;8.63;;;;;;;23.15;nan;62022.13;5032731;28;20221;-60
2023/07/08 04:22:33;;;;;;;13.38;8.32;;;;;;;23.87;nan;62141.53;5032184;28;20171;-62
2023/07/08 04:24:59;;;;;;;12.75;8.20;;;;;;;24.53;nan;62229.84;5032301;28;20173;-62
2023/07/08 04:27:24;;;;;;;14.15;8.02;;;;;;;24.42;nan;62206.84;5026957;28;20195;-62
2023/07/08 04:29:49;;;;;;;13.80;8.75;;;;;;;24.26;nan;62135.81;5025021;28;20222;-63
2023/07/08 04:32:15;;;;;;;14.38;8.15;;;;;;;23.96;nan;62091.72;5023838;28;20639;-60
2023/07/08 04:34:40;;;;;;;12.63;7.80;;;;;;;24.24;nan;62471.00;5023610;28;20334;-61
2023/07/08 04:37:06;;;;;;;13.68;8.48;;;;;;;24.29;nan;62165.91;5024444;28;20221;-62
2023/07/08 04:39:32;;;;;;;13.32;8.25;;;;;;;24.60;nan;62213.75;5023457;28;20168;-64
2023/07/08 04:41:57;;;;;;;16.42;8.57;;;;;;;25.22;nan;62288.53;5024789;28;20176;-62
2023/07/08 04:44:24;;;;;;;14.77;7.90;;;;;;;26.24;nan;62445.81;5016316;28;20651;-62
2023/07/08 04:46:53;;;;;;;12.20;7.95;;;;;;;26.60;nan;62473.28;5027904;28;20217;-62
2023/07/08 04:49:20;;;;;;;13.70;7.88;;;;;;;26.50;nan;62451.34;5033333;28;20199;-61
2023/07/08 04:51:45;;;;;;;11.07;7.72;;;;;;;26.69;nan;62570.09;5033581;28;20167;-62
2023/07/08 04:54:11;;;;;;;15.43;8.40;;;;;;;27.05;nan;62524.19;5033721;28;20546;-61
2023/07/08 04:56:41;;;;;;;13.13;7.90;;;;;;;26.66;nan;62454.50;5033543;28;20654;-60
2023/07/08 04:59:09;;;;;;;13.30;8.18;;;;;;;26.97;nan;62512.97;5033594;28;20175;-62
2023/07/08 05:01:35;;;;;;;13.68;8.15;;;;;;;26.99;nan;62548.81;5033466;28;20179;-61
2023/07/08 05:04:00;;;;;;;12.50;8.10;;;;;;;26.67;nan;62510.69;5033302;28;20238;-60
2023/07/08 05:06:27;;;;;;;12.10;7.82;;;;;;;26.74;nan;62450.50;5033503;28;20190;-62
2023/07/08 05:08:52;;;;;;;12.82;8.20;;;;;;;26.90;nan;62539.09;5033599;28;20188;-62
2023/07/08 05:11:18;;;;;;;12.68;8.02;;;;;;;26.98;nan;62550.84;5033275;28;20171;-63
2023/07/08 05:13:43;;;;;;;11.70;7.45;;;;;;;27.72;nan;62618.66;5032701;28;20624;-61
2023/07/08 05:16:08;;;;;;;13.05;8.00;;;;;;;27.25;nan;62873.09;5033566;28;20172;-64
2023/07/08 05:18:34;;;;;;;12.43;7.88;;;;;;;26.68;nan;62456.22;5033644;28;20160;-60
2023/07/08 05:20:59;;;;;;;10.77;6.90;;;;;;;26.37;nan;62439.69;5032807;28;20164;-62
2023/07/08 05:23:25;;;;;;;11.18;7.38;;;;;;;26.33;nan;62584.50;5033414;28;20222;-59
2023/07/08 05:25:50;;;;;;;11.32;7.80;;;;;;;26.95;nan;62520.63;5032619;28;20233;-65
2023/07/08 05:28:16;;;;;;;10.88;6.93;;;;;;;26.96;nan;62511.28;5033139;28;20175;-60
2023/07/08 05:30:42;;;;;;;11.95;7.38;;;;;;;27.55;nan;62895.94;5033168;28;20294;-64
2023/07/08 05:33:08;;;;;;;14.80;7.53;;;;;;;27.60;nan;62616.00;5032891;28;20665;-59
2023/07/08 05:35:34;;;;;;;10.90;7.32;;;;;;;27.64;nan;62715.13;5032822;28;20234;-63
2023/07/08 05:38:00;;;;;;;12.40;7.85;;;;;;;27.73;nan;62648.69;5032500;28;20658;-61
2023/07/08 05:40:25;;;;;;;12.25;7.53;;;;;;;27.64;nan;62549.69;5033071;28;20209;-60
2023/07/08 05:42:50;;;;;;;12.90;7.35;;;;;;;27.80;nan;62635.69;5032766;28;20533;-60
2023/07/08 05:45:16;;;;;;;12.35;6.75;;;;;;;27.67;nan;62707.50;5032956;28;20164;-64
2023/07/08 05:47:41;;;;;;;11.25;7.03;;;;;;;27.11;nan;62563.09;5032656;28;20221;-60
2023/07/08 05:50:07;;;;;;;11.63;6.70;;;;;;;27.00;nan;62570.94;5032380;28;20231;-63
2023/07/08 05:52:33;;;;;;;10.15;6.82;;;;;;;26.67;nan;62513.31;5031918;28;20624;-63
2023/07/08 05:54:59;;;;;;;13.13;7.65;;;;;;;26.36;nan;62672.38;5029443;28;20787;-61
2023/07/08 05:57:24;;;;;;;10.80;7.15;;;;;;;26.35;nan;62514.00;5031513;28;20178;-63
2023/07/08 05:59:50;;;;;;;10.85;6.70;;;;;;;26.19;nan;62396.09;5032341;28;20179;-60
2023/07/08 06:02:16;;;;;;;11.32;6.65;;;;;;;26.18;nan;62429.03;5032116;28;20177;-65
2023/07/08 06:04:42;;;;;;;10.38;6.80;;;;;;;26.26;nan;62440.25;5032197;28;20228;-62
2023/07/08 06:07:07;;;;;;;9.90;6.60;;;;;;;25.93;nan;62405.72;5032493;28;20172;-64
2023/07/08 06:09:33;;;;;;;13.18;6.90;;;;;;;25.65;nan;62429.28;5032422;28;20199;-60
2023/07/08 06:11:59;;;;;;;12.27;6.78;;;;;;;26.02;nan;62413.38;5032384;28;20643;-64
2023/07/08 06:14:24;;;;;;;11.43;7.20;;;;;;;26.16;nan;62418.88;5032236;28;20168;-61
2023/07/08 06:16:50;;;;;;;11.20;6.72;;;;;;;26.24;nan;62464.16;5032091;28;20259;-62
2023/07/08 06:19:17;;;;;;;10.43;6.57;;;;;;;26.21;nan;62445.59;5032302;28;20164;-62
2023/07/08 06:21:42;;;;;;;9.90;6.53;;;;;;;25.98;nan;62503.09;5032251;28;20168;-62
2023/07/08 06:24:08;;;;;;;9.05;6.50;;;;;;;26.03;nan;62707.91;5032344;28;20171;-62
2023/07/08 06:26:34;;;;;;;11.25;7.10;;;;;;;25.88;nan;62329.28;5032250;28;20167;-60
2023/07/08 06:28:59;;;;;;;10.95;6.47;;;;;;;26.02;nan;62515.53;5031882;28;20195;-63
2023/07/08 06:31:25;;;;;;;9.93;6.40;;;;;;;26.24;nan;62490.94;5032045;28;20155;-60
2023/07/08 06:33:51;;;;;;;11.00;5.72;;;;;;;26.35;nan;62466.81;5031200;28;20179;-61
2023/07/08 06:36:16;;;;;;;8.23;5.10;;;;;;;26.24;nan;62485.69;5031776;28;20155;-60
2023/07/08 06:38:42;;;;;;;8.13;5.40;;;;;;;26.21;nan;62429.88;5032205;28;20171;-61
2023/07/08 06:41:07;;;;;;;9.23;5.28;;;;;;;26.22;nan;62399.53;5031893;28;20190;-60
2023/07/08 06:43:32;;;;;;;9.20;5.18;;;;;;;26.34;nan;62719.91;5031679;28;20179;-64
2023/07/08 06:45:58;;;;;;;8.02;4.65;;;;;;;26.16;nan;62581.31;5031880;28;20186;-62
2023/07/08 06:48:24;;;;;;;7.85;4.97;;;;;;;26.31;nan;62761.00;5031270;28;20203;-61
2023/07/08 06:50:50;;;;;;;6.70;4.90;;;;;;;26.67;nan;62507.50;5031777;28;20213;-62
2023/07/08 06:53:15;;;;;;;6.32;4.82;;;;;;;26.89;nan;62540.56;5031095;28;20253;-64
2023/07/08 06:55:43;;;;;;;6.70;4.78;;;;;;;27.01;nan;62651.34;5031773;28;20207;-65
2023/07/08 06:58:08;;;;;;;5.45;4.00;;;;;;;27.21;nan;62592.91;5031434;28;20186;-60
2023/07/08 07:00:34;;;;;;;5.75;4.28;;;;;;;27.31;nan;62616.34;5031675;28;20172;-61
2023/07/08 07:02:59;;;;;;;6.75;4.28;;;;;;;27.12;nan;62592.53;5011430;28;20303;-61
2023/07/08 07:05:24;;;;;;;6.22;3.97;;;;;;;26.54;nan;62437.59;5011939;28;20168;-62
2023/07/08 07:07:52;;;;;;;5.63;4.20;;;;;;;26.92;nan;62818.84;5011914;28;20176;-63
2023/07/08 07:10:18;;;;;;;6.28;4.38;;;;;;;26.97;nan;62533.38;5011284;28;20214;-62
2023/07/08 07:12:44;;;;;;;11.05;4.32;;;;;;;26.91;nan;62611.06;5011601;28;20180;-63
2023/07/08 07:15:09;;;;;;;6.75;4.25;;;;;;;26.80;nan;62498.78;5011694;28;20194;-62
2023/07/08 07:17:35;;;;;;;6.13;4.03;;;;;;;27.17;nan;62742.59;5017845;28;20205;-68
2023/07/08 07:20:01;;;;;;;4.95;4.07;;;;;;;27.55;nan;62628.66;5031497;28;20187;-61
2023/07/08 07:22:28;;;;;;;5.43;4.00;;;;;;;27.69;nan;62633.63;5031533;28;20175;-63
2023/07/08 07:24:54;;;;;;;5.82;4.38;;;;;;;27.70;nan;62755.56;5031452;28;20186;-62
2023/07/08 07:27:19;;;;;;;6.10;4.07;;;;;;;27.78;nan;62632.84;5031621;28;20270;-66
2023/07/08 07:29:49;;;;;;;5.65;3.95;;;;;;;27.45;nan;62692.75;5031446;28;20303;-62
2023/07/08 07:32:17;;;;;;;6.13;4.30;;;;;;;27.45;nan;62789.91;5031478;28;20171;-61
2023/07/08 07:34:42;;;;;;;6.97;4.35;;;;;;;27.12;nan;62671.25;5031156;28;20554;-65
2023/07/08 07:37:13;;;;;;;6.50;4.53;;;;;;;27.03;nan;62811.09;5031268;28;20175;-62
2023/07/08 07:39:39;;;;;;;5.72;4.05;;;;;;;27.05;nan;62566.72;5031662;28;20178;-63
2023/07/08 07:42:05;;;;;;;11.23;4.78;;;;;;;27.15;nan;62559.22;5030947;28;20269;-63
2023/07/08 07:44:30;;;;;;;5.68;4.07;;;;;;;27.20;nan;62528.78;5031229;28;20194;-61
2023/07/08 07:46:56;;;;;;;5.78;4.20;;;;;;;27.47;nan;62682.47;5031130;28;20621;-63
2023/07/08 07:49:21;;;;;;;5.35;3.72;;;;;;;27.71;nan;62656.91;5030878;28;20218;-61
2023/07/08 07:51:48;;;;;;;6.18;4.47;;;;;;;27.76;nan;62775.03;5030769;28;20164;-62
2023/07/08 07:54:14;;;;;;;4.93;3.80;;;;;;;27.59;nan;62574.91;5030645;28;20207;-63
2023/07/08 07:56:39;;;;;;;6.40;4.30;;;;;;;27.79;nan;62673.94;5030099;28;20207;-61
2023/07/08 07:59:04;;;;;;;5.75;3.97;;;;;;;28.04;nan;62757.78;5029616;28;20222;-61
2023/07/08 08:01:30;;;;;;;6.80;4.07;;;;;;;27.70;nan;62676.78;5030694;28;20624;-62
2023/07/08 08:03:55;;;;;;;6.65;4.18;;;;;;;27.65;nan;62724.16;5031239;28;20229;-63
2023/07/08 08:06:20;;;;;;;5.70;3.60;;;;;;;27.65;nan;62589.66;5031373;28;20178;-62
2023/07/08 08:08:46;;;;;;;4.88;3.75;;;;;;;27.61;nan;62735.31;5030833;28;20618;-62
2023/07/08 08:11:12;;;;;;;6.53;3.42;;;;;;;27.82;nan;62614.34;5031005;28;20235;-61
2023/07/08 08:13:37;;;;;;;8.70;4.15;;;;;;;27.95;nan;62612.88;5030933;28;20171;-61
2023/07/08 08:16:03;;;;;;;4.68;3.47;;;;;;;26.37;nan;64364.53;5030761;28;20286;-62
2023/07/08 08:18:29;;;;;;;5.57;3.88;;;;;;;28.36;nan;62762.38;5030762;28;20183;-63
2023/07/08 08:20:55;;;;;;;5.53;3.80;;;;;;;27.98;nan;62787.69;5031710;28;20171;-64
2023/07/08 08:23:21;;;;;;;6.53;4.18;;;;;;;28.32;nan;62725.69;5034573;28;20273;-61
2023/07/08 08:25:46;;;;;;;5.88;3.92;;;;;;;28.43;nan;62759.31;5034669;28;20178;-63
2023/07/08 08:28:12;;;;;;;6.07;3.85;;;;;;;28.09;nan;62805.00;5034139;28;20183;-60
2023/07/08 08:30:37;;;;;;;4.57;3.58;;;;;;;28.25;nan;62728.19;5034251;28;20199;-64
2023/07/08 08:33:03;;;;;;;5.38;3.65;;;;;;;28.47;nan;62890.72;5034217;28;20176;-62
2023/07/08 08:35:28;;;;;;;6.63;3.42;;;;;;;28.42;nan;62779.22;5034307;28;20175;-59
2023/07/08 08:37:54;;;;;;;6.15;3.53;;;;;;;28.73;nan;62843.72;5032365;28;20183;-64
2023/07/08 08:40:20;;;;;;;5.75;3.58;;;;;;;28.38;nan;62788.34;5033929;28;20180;-63
2023/07/08 08:42:53;;;;;;;4.93;3.53;;;;;;;28.84;nan;62790.56;5033825;28;20171;-61
2023/07/08 08:45:20;;;;;;;5.28;3.47;;;;;;;28.77;nan;62793.06;5034215;28;20169;-64
2023/07/08 08:47:49;;;;;;;4.22;3.25;;;;;;;29.31;nan;62857.09;5033851;28;20207;-62
2023/07/08 08:50:36;;;;;;;5.47;2.92;;;;;;;29.49;nan;62948.31;5033807;28;20202;-60
2023/07/08 08:53:05;;;;;;;4.40;3.15;;;;;;;29.51;nan;63000.66;5034195;28;20308;-60
2023/07/08 08:55:31;;;;;;;4.68;3.30;;;;;;;29.92;nan;62960.25;5033517;28;20178;-65
2023/07/08 08:58:30;;;;;;;7.05;3.20;;;;;;;29.55;nan;62949.91;5033877;28;20167;-60
2023/07/08 09:01:02;;;;;;;3.60;3.00;;;;;;;29.49;nan;62916.13;5033511;28;20202;-63
2023/07/08 09:03:37;;;;;;;6.72;3.53;;;;;;;29.04;nan;62981.41;5034004;28;20214;-61
2023/07/08 09:06:11;;;;;;;4.70;3.13;;;;;;;28.82;nan;62814.00;5033672;28;20179;-62
2023/07/08 09:08:37;;;;;;;4.13;2.63;;;;;;;29.02;nan;62939.03;5033295;28;20560;-63
2023/07/08 09:11:14;;;;;;;4.35;3.03;;;;;;;29.01;nan;62901.03;5033398;28;20627;-62
2023/07/08 09:13:40;;;;;;;5.72;3.38;;;;;;;28.43;nan;62962.41;5033448;28;20236;-61
2023/07/08 09:16:17;;;;;;;3.78;2.80;;;;;;;28.97;nan;62842.31;5033294;28;20254;-61
2023/07/08 09:18:49;;;;;;;5.57;3.10;;;;;;;29.06;nan;62872.56;5033753;28;20245;-65
2023/07/08 09:21:26;;;;;;;4.85;3.00;;;;;;;28.86;nan;62787.59;5033230;28;20197;-60
2023/07/08 09:23:58;;;;;;;3.70;2.90;;;;;;;28.66;nan;62735.72;5032931;28;20265;-61
2023/07/08 09:26:25;;;;;;;4.93;3.33;;;;;;;28.96;nan;62822.75;5033003;28;20202;-61
2023/07/08 09:28:51;;;;;;;4.63;3.17;;;;;;;29.02;nan;62883.78;5033135;28;20171;-63
2023/07/08 09:31:24;;;;;;;4.05;3.03;;;;;;;29.13;nan;62917.47;5033336;28;20171;-63
2023/07/08 09:34:04;;;;;;;3.92;2.95;;;;;;;28.96;nan;62796.44;5033496;28;20174;-64
2023/07/08 09:36:29;;;;;;;4.45;2.92;;;;;;;29.33;nan;62979.97;5033566;28;20560;-62
2023/07/08 09:38:55;;;;;;;5.45;3.17;;;;;;;29.65;nan;63037.81;5033277;28;20185;-62
2023/07/08 09:41:31;;;;;;;4.65;3.08;;;;;;;29.57;nan;62922.66;5026196;28;20322;-61
2023/07/08 09:44:19;;;;;;;5.68;3.10;;;;;;;29.79;nan;62924.78;5013667;28;20175;-60
2023/07/08 09:46:45;;;;;;;3.47;2.70;;;;;;;29.56;nan;63021.63;5013794;28;20673;-60
2023/07/08 09:49:35;;;;;;;4.22;3.17;;;;;;;29.63;nan;63042.88;5021145;28;20198;-61
2023/07/08 09:52:02;;;;;;;3.85;2.80;;;;;;;29.83;nan;63181.84;5024521;28;20655;-64
2023/07/08 09:54:27;;;;;;;3.90;3.08;;;;;;;29.75;nan;62996.03;5021680;28;20195;-61
2023/07/08 09:56:53;;;;;;;4.68;3.20;;;;;;;29.97;nan;62991.78;5023128;28;20229;-61
2023/07/08 09:59:31;;;;;;;5.10;3.20;;;;;;;29.53;nan;62904.91;5027776;28;20171;-61
2023/07/08 10:02:01;;;;;;;4.10;3.03;;;;;;;29.59;nan;62990.84;5032892;28;20166;-63
2023/07/08 10:04:26;;;;;;;4.10;3.17;;;;;;;29.44;nan;62957.78;5031593;28;20246;-60
2023/07/08 10:06:54;;;;;;;4.00;2.97;;;;;;;29.28;nan;62853.63;5032557;28;20175;-63
2023/07/08 10:09:23;;;;;;;6.72;3.28;;;;;;;29.53;nan;62939.16;5031729;28;20547;-60
2023/07/08 10:12:02;;;;;;;5.13;3.38;;;;;;;29.38;nan;62967.84;5032323;28;20609;-63
2023/07/08 10:14:32;;;;;;;4.35;3.00;;;;;;;29.04;nan;62941.34;5032267;28;20161;-61
2023/07/08 10:16:57;;;;;;;4.80;2.95;;;;;;;29.50;nan;62944.19;5032358;28;20179;-62
2023/07/08 10:19:23;;;;;;;3.72;2.80;;;;;;;29.61;nan;62979.97;5032472;28;20177;-63
2023/07/08 10:22:22;;;;;;;4.68;3.20;;;;;;;29.42;nan;63024.53;5032171;28;20650;-65
2023/07/08 10:24:58;;;;;;;3.75;2.70;;;;;;;29.44;nan;62878.78;5031413;28;20170;-61
2023/07/08 10:27:39;;;;;;;3.63;3.10;;;;;;;29.44;nan;62866.19;5032265;28;20179;-61
2023/07/08 10:30:22;;;;;;;3.92;3.05;;;;;;;29.07;nan;62810.53;5031612;28;20226;-63
2023/07/08 10:33:17;;;;;;;4.47;2.95;;;;;;;29.37;nan;62892.94;5031508;28;20159;-60
2023/07/08 10:36:15;;;;;;;6.82;2.95;;;;;;;29.76;nan;62973.47;5031769;28;20177;-63
2023/07/08 10:38:46;;;;;;;4.93;3.00;;;;;;;29.83;nan;62926.16;5031678;28;20673;-62
2023/07/08 10:41:25;;;;;;;3.92;2.90;;;;;;;29.85;nan;62965.38;5032042;28;20173;-61
2023/07/08 10:44:16;;;;;;;3.78;2.60;;;;;;;30.08;nan;62993.88;5030973;28;20174;-60
2023/07/08 10:47:03;;;;;;;4.80;3.00;;;;;;;30.25;nan;63066.75;5031237;28;20224;-63
2023/07/08 10:49:43;;;;;;;3.72;2.83;;;;;;;30.21;nan;63056.28;5031423;28;20194;-61
2023/07/08 10:52:43;;;;;;;3.95;2.70;;;;;;;30.07;nan;63098.19;5031492;28;20205;-65
2023/07/08 10:55:14;;;;;;;2.92;2.40;;;;;;;30.46;nan;63108.84;5031854;28;20680;-60
2023/07/08 10:57:50;;;;;;;4.05;2.40;;;;;;;30.42;nan;63120.03;5031400;28;20261;-61
2023/07/08 11:00:29;;;;;;;5.38;2.83;;;;;;;30.12;nan;63075.53;5031468;28;20185;-60
2023/07/08 11:03:32;;;;;;;4.13;2.85;;;;;;;30.21;nan;63056.28;5030648;28;20305;-64
2023/07/08 11:06:11;;;;;;;3.17;2.42;;;;;;;30.23;nan;62963.66;5031544;28;20214;-62
2023/07/08 11:08:47;;;;;;;3.63;2.75;;;;;;;30.39;nan;63018.97;5011900;28;20167;-66
2023/07/08 11:11:39;;;;;;;4.90;3.20;;;;;;;30.56;nan;63109.22;5018707;28;20182;-63
2023/07/08 11:14:13;;;;;;;4.00;2.95;;;;;;;30.62;nan;63085.00;5026748;28;20640;-61
2023/07/08 11:17:18;;;;;;;4.75;2.97;;;;;;;30.87;nan;63139.59;5031341;28;20179;-61
2023/07/08 11:20:07;;;;;;;4.32;2.72;;;;;;;30.49;nan;63043.66;5025911;28;20186;-61
2023/07/08 11:22:36;;;;;;;11.50;3.25;;;;;;;30.35;nan;63072.41;5010357;28;20221;-62
2023/07/08 11:25:05;;;;;;;9.50;4.00;;;;;;;30.51;nan;62992.63;5031626;28;20167;-63
2023/07/08 11:27:37;;;;;;;4.10;3.15;;;;;;;30.64;nan;63084.69;5031240;28;20173;-61
2023/07/08 11:30:12;;;;;;;4.97;2.97;;;;;;;30.56;nan;63301.84;5031560;28;20206;-64
2023/07/08 11:32:40;;;;;;;4.60;3.00;;;;;;;30.47;nan;63152.19;5031621;28;20178;-62
2023/07/08 11:35:13;;;;;;;3.88;3.00;;;;;;;30.48;nan;63153.34;5030501;28;20171;-60
2023/07/08 11:37:39;;;;;;;4.60;3.05;;;;;;;28.60;nan;62767.72;5031841;28;20629;-61
2023/07/08 11:40:05;;;;;;;3.83;3.00;;;;;;;31.02;nan;63209.13;5031652;28;20214;-60
2023/07/08 11:42:42;;;;;;;4.97;3.38;;;;;;;30.91;nan;63228.13;5031614;28;20266;-61
2023/07/08 11:45:29;;;;;;;5.07;2.97;;;;;;;30.78;nan;63234.84;5031993;28;20171;-61
2023/07/08 11:48:15;;;;;;;4.18;3.05;;;;;;;30.91;nan;63125.72;5031612;28;20280;-61
2023/07/08 11:50:43;;;;;;;5.72;3.40;;;;;;;31.10;nan;63125.91;5031585;28;20333;-61
2023/07/08 11:53:13;;;;;;;4.10;3.05;;;;;;;31.40;nan;63247.63;5031640;28;20175;-60
2023/07/08 11:56:00;;;;;;;4.10;3.20;;;;;;;31.44;nan;63264.88;5033825;28;20173;-63